sensor_id;sensor_type;location;lat;lon;timestamp;P1;durP1;ratioP1;P2;durP2;ratioP2
42964;SDS011;28604;51.204;22.552;2024-03-07T03:11:03;29.27;;;15.38;;
42964;SDS011;28604;51.204;22.552;2024-03-07T03:13:29;26.52;;;14.25;;
42964;SDS011;28604;51.204;22.552;2024-03-07T03:15:55;24.17;;;13.85;;
42964;SDS011;28604;51.204;22.552;2024-03-07T03:18:22;25.88;;;14.23;;
42964;SDS011;28604;51.204;22.552;2024-03-07T03:20:49;22.40;;;12.98;;
42964;SDS011;28604;51.204;22.552;2024-03-07T03:23:15;29.75;;;14.13;;
42964;SDS011;28604;51.204;22.552;2024-03-07T03:25:42;23.08;;;14.43;;
42964;SDS011;28604;51.204;22.552;2024-03-07T03:28:08;23.02;;;13.75;;
42964;SDS011;28604;51.204;22.552;2024-03-07T03:30:38;25.83;;;13.48;;
42964;SDS011;28604;51.204;22.552;2024-03-07T03:33:05;23.70;;;13.20;;
42964;SDS011;28604;51.204;22.552;2024-03-07T03:35:32;27.88;;;13.40;;
42964;SDS011;28604;51.204;22.552;2024-03-07T03:37:59;19.63;;;12.65;;
42964;SDS011;28604;51.204;22.552;2024-03-07T03:40:25;20.70;;;12.82;;
42964;SDS011;28604;51.204;22.552;2024-03-07T03:42:51;20.70;;;11.85;;
42964;SDS011;28604;51.204;22.552;2024-03-07T03:45:17;20.83;;;11.32;;
42964;SDS011;28604;51.204;22.552;2024-03-07T03:47:43;22.15;;;12.57;;
42964;SDS011;28604;51.204;22.552;2024-03-07T03:50:11;22.08;;;11.77;;
42964;SDS011;28604;51.204;22.552;2024-03-07T03:52:38;22.38;;;11.88;;
42964;SDS011;28604;51.204;22.552;2024-03-07T03:55:07;20.95;;;11.75;;
42964;SDS011;28604;51.204;22.552;2024-03-07T03:57:41;19.45;;;11.65;;
42964;SDS011;28604;51.204;22.552;2024-03-07T04:00:09;20.50;;;12.30;;
42964;SDS011;28604;51.204;22.552;2024-03-07T04:02:42;22.92;;;12.55;;
42964;SDS011;28604;51.204;22.552;2024-03-07T04:05:10;19.25;;;12.18;;
42964;SDS011;28604;51.204;22.552;2024-03-07T04:07:38;25.27;;;13.45;;
42964;SDS011;28604;51.204;22.552;2024-03-07T04:10:05;25.25;;;11.82;;
42964;SDS011;28604;51.204;22.552;2024-03-07T04:12:38;27.40;;;12.70;;
42964;SDS011;28604;51.204;22.552;2024-03-07T04:15:06;21.30;;;12.13;;
42964;SDS011;28604;51.204;22.552;2024-03-07T04:17:34;22.20;;;13.25;;
42964;SDS011;28604;51.204;22.552;2024-03-07T04:20:01;21.08;;;12.85;;
42964;SDS011;28604;51.204;22.552;2024-03-07T04:22:31;18.98;;;11.70;;
42964;SDS011;28604;51.204;22.552;2024-03-07T04:24:58;18.42;;;11.57;;
42964;SDS011;28604;51.204;22.552;2024-03-07T04:27:24;21.08;;;11.82;;
42964;SDS011;28604;51.204;22.552;2024-03-07T04:29:51;18.25;;;10.98;;
42964;SDS011;28604;51.204;22.552;2024-03-07T04:32:17;19.08;;;10.88;;
42964;SDS011;28604;51.204;22.552;2024-03-07T04:34:44;23.63;;;11.65;;
42964;SDS011;28604;51.204;22.552;2024-03-07T04:37:10;20.13;;;12.18;;
42964;SDS011;28604;51.204;22.552;2024-03-07T04:39:38;20.80;;;12.77;;
42964;SDS011;28604;51.204;22.552;2024-03-07T04:42:05;20.45;;;12.18;;
42964;SDS011;28604;51.204;22.552;2024-03-07T04:44:33;18.40;;;11.63;;
42964;SDS011;28604;51.204;22.552;2024-03-07T04:47:01;21.25;;;11.80;;
42964;SDS011;28604;51.204;22.552;2024-03-07T04:49:29;17.92;;;11.23;;
42964;SDS011;28604;51.204;22.552;2024-03-07T04:51:59;20.52;;;11.15;;
42964;SDS011;28604;51.204;22.552;2024-03-07T04:54:27;18.75;;;11.98;;
42964;SDS011;28604;51.204;22.552;2024-03-07T04:56:54;21.38;;;11.52;;
42964;SDS011;28604;51.204;22.552;2024-03-07T04:59:21;21.65;;;12.52;;
42964;SDS011;28604;51.204;22.552;2024-03-07T05:01:48;19.73;;;11.52;;
42964;SDS011;28604;51.204;22.552;2024-03-07T05:04:15;17.60;;;11.35;;
42964;SDS011;28604;51.204;22.552;2024-03-07T05:06:42;30.92;;;14.00;;
42964;SDS011;28604;51.204;22.552;2024-03-07T05:43:32;21.92;;;10.35;;
42964;SDS011;28604;51.204;22.552;2024-03-07T05:45:58;16.13;;;9.60;;
42964;SDS011;28604;51.204;22.552;2024-03-07T05:48:25;20.30;;;11.45;;
42964;SDS011;28604;51.204;22.552;2024-03-07T05:50:52;17.23;;;9.68;;
42964;SDS011;28604;51.204;22.552;2024-03-07T05:53:18;18.15;;;10.68;;
42964;SDS011;28604;51.204;22.552;2024-03-07T05:55:44;19.00;;;11.23;;
42964;SDS011;28604;51.204;22.552;2024-03-07T05:58:11;16.38;;;10.57;;
42964;SDS011;28604;51.204;22.552;2024-03-07T06:00:38;18.73;;;11.43;;
42964;SDS011;28604;51.204;22.552;2024-03-07T06:03:05;17.40;;;10.43;;
42964;SDS011;28604;51.204;22.552;2024-03-07T06:05:31;21.92;;;11.13;;
42964;SDS011;28604;51.204;22.552;2024-03-07T06:07:57;21.30;;;10.70;;
42964;SDS011;28604;51.204;22.552;2024-03-07T06:10:23;13.43;;;8.70;;
42964;SDS011;28604;51.204;22.552;2024-03-07T06:12:50;15.38;;;9.45;;
42964;SDS011;28604;51.204;22.552;2024-03-07T06:15:17;15.68;;;9.32;;
42964;SDS011;28604;51.204;22.552;2024-03-07T06:17:43;15.73;;;9.23;;
42964;SDS011;28604;51.204;22.552;2024-03-07T06:20:12;21.88;;;10.55;;
42964;SDS011;28604;51.204;22.552;2024-03-07T06:22:51;19.55;;;11.05;;
42964;SDS011;28604;51.204;22.552;2024-03-07T06:25:20;20.58;;;11.52;;
42964;SDS011;28604;51.204;22.552;2024-03-07T06:27:59;20.33;;;11.40;;
42964;SDS011;28604;51.204;22.552;2024-03-07T06:30:35;19.50;;;12.55;;
42964;SDS011;28604;51.204;22.552;2024-03-07T06:33:02;24.17;;;12.07;;
42964;SDS011;28604;51.204;22.552;2024-03-07T06:35:28;20.75;;;11.85;;
42964;SDS011;28604;51.204;22.552;2024-03-07T06:37:54;21.77;;;12.50;;
42964;SDS011;28604;51.204;22.552;2024-03-07T06:40:20;20.23;;;11.43;;
42964;SDS011;28604;51.204;22.552;2024-03-07T06:42:50;18.60;;;11.43;;
42964;SDS011;28604;51.204;22.552;2024-03-07T06:45:18;21.30;;;10.88;;
42964;SDS011;28604;51.204;22.552;2024-03-07T06:47:44;22.67;;;10.10;;
42964;SDS011;28604;51.204;22.552;2024-03-07T06:50:10;18.48;;;10.80;;
42964;SDS011;28604;51.204;22.552;2024-03-07T06:52:39;17.45;;;10.80;;
42964;SDS011;28604;51.204;22.552;2024-03-07T06:55:06;19.88;;;10.30;;
42964;SDS011;28604;51.204;22.552;2024-03-07T06:57:36;18.58;;;10.55;;
42964;SDS011;28604;51.204;22.552;2024-03-07T07:00:03;16.83;;;9.38;;
42964;SDS011;28604;51.204;22.552;2024-03-07T07:02:39;18.33;;;10.70;;
42964;SDS011;28604;51.204;22.552;2024-03-07T07:05:07;15.30;;;10.38;;
42964;SDS011;28604;51.204;22.552;2024-03-07T07:07:39;15.18;;;9.73;;
42964;SDS011;28604;51.204;22.552;2024-03-07T07:10:09;14.13;;;9.55;;
42964;SDS011;28604;51.204;22.552;2024-03-07T07:12:41;15.20;;;9.15;;
42964;SDS011;28604;51.204;22.552;2024-03-07T07:15:10;26.75;;;9.73;;
42964;SDS011;28604;51.204;22.552;2024-03-07T07:17:36;14.70;;;8.98;;
42964;SDS011;28604;51.204;22.552;2024-03-07T07:20:03;17.63;;;10.30;;
42964;SDS011;28604;51.204;22.552;2024-03-07T07:25:05;13.98;;;8.93;;
42964;SDS011;28604;51.204;22.552;2024-03-07T07:27:45;18.95;;;9.57;;
42964;SDS011;28604;51.204;22.552;2024-03-07T07:30:17;15.80;;;9.68;;
42964;SDS011;28604;51.204;22.552;2024-03-07T07:32:44;19.05;;;10.48;;
42964;SDS011;28604;51.204;22.552;2024-03-07T07:35:11;24.15;;;10.43;;
42964;SDS011;28604;51.204;22.552;2024-03-07T07:37:41;16.40;;;9.48;;
42964;SDS011;28604;51.204;22.552;2024-03-07T07:40:08;19.90;;;10.55;;
42964;SDS011;28604;51.204;22.552;2024-03-07T07:42:43;19.80;;;11.63;;
42964;SDS011;28604;51.204;22.552;2024-03-07T07:45:10;19.83;;;11.57;;
42964;SDS011;28604;51.204;22.552;2024-03-07T07:47:39;14.50;;;9.73;;
42964;SDS011;28604;51.204;22.552;2024-03-07T07:50:17;14.60;;;9.13;;
42964;SDS011;28604;51.204;22.552;2024-03-07T07:52:57;16.17;;;9.27;;
42964;SDS011;28604;51.204;22.552;2024-03-07T07:55:25;14.82;;;9.27;;
42964;SDS011;28604;51.204;22.552;2024-03-07T07:57:56;14.85;;;9.90;;
42964;SDS011;28604;51.204;22.552;2024-03-07T08:00:24;13.80;;;9.82;;
42964;SDS011;28604;51.204;22.552;2024-03-07T08:03:03;14.10;;;8.95;;
42964;SDS011;28604;51.204;22.552;2024-03-07T08:05:35;14.45;;;9.05;;
42964;SDS011;28604;51.204;22.552;2024-03-07T08:08:05;14.27;;;8.75;;
42964;SDS011;28604;51.204;22.552;2024-03-07T08:10:33;12.77;;;9.50;;
42964;SDS011;28604;51.204;22.552;2024-03-07T08:13:02;12.32;;;8.77;;
42964;SDS011;28604;51.204;22.552;2024-03-07T08:15:29;14.20;;;8.85;;
42964;SDS011;28604;51.204;22.552;2024-03-07T08:17:56;26.17;;;9.50;;
42964;SDS011;28604;51.204;22.552;2024-03-07T08:20:23;17.35;;;9.98;;
42964;SDS011;28604;51.204;22.552;2024-03-07T08:23:10;19.40;;;10.40;;
42964;SDS011;28604;51.204;22.552;2024-03-07T08:25:47;18.25;;;9.48;;
42964;SDS011;28604;51.204;22.552;2024-03-07T08:28:13;13.70;;;8.68;;
42964;SDS011;28604;51.204;22.552;2024-03-07T08:30:39;15.07;;;8.93;;
42964;SDS011;28604;51.204;22.552;2024-03-07T08:33:07;15.45;;;9.43;;
42964;SDS011;28604;51.204;22.552;2024-03-07T08:35:33;12.27;;;9.23;;
42964;SDS011;28604;51.204;22.552;2024-03-07T08:37:59;13.38;;;9.52;;
42964;SDS011;28604;51.204;22.552;2024-03-07T08:40:27;14.98;;;9.30;;
42964;SDS011;28604;51.204;22.552;2024-03-07T08:42:57;15.05;;;10.68;;
42964;SDS011;28604;51.204;22.552;2024-03-07T08:45:25;14.32;;;9.18;;
42964;SDS011;28604;51.204;22.552;2024-03-07T08:47:53;12.27;;;8.73;;
42964;SDS011;28604;51.204;22.552;2024-03-07T08:50:20;17.05;;;9.23;;
42964;SDS011;28604;51.204;22.552;2024-03-07T08:52:47;17.27;;;10.73;;
42964;SDS011;28604;51.204;22.552;2024-03-07T08:55:20;12.75;;;8.70;;
42964;SDS011;28604;51.204;22.552;2024-03-07T08:57:50;19.08;;;10.80;;
42964;SDS011;28604;51.204;22.552;2024-03-07T09:00:17;20.80;;;10.27;;
42964;SDS011;28604;51.204;22.552;2024-03-07T09:02:56;16.40;;;9.32;;
42964;SDS011;28604;51.204;22.552;2024-03-07T09:05:23;14.13;;;10.00;;
42964;SDS011;28604;51.204;22.552;2024-03-07T09:07:53;15.70;;;10.02;;
42964;SDS011;28604;51.204;22.552;2024-03-07T09:10:20;17.50;;;10.18;;
42964;SDS011;28604;51.204;22.552;2024-03-07T09:12:48;14.95;;;8.80;;
42964;SDS011;28604;51.204;22.552;2024-03-07T09:15:15;17.70;;;10.13;;
42964;SDS011;28604;51.204;22.552;2024-03-07T09:17:42;18.42;;;9.80;;
42964;SDS011;28604;51.204;22.552;2024-03-07T09:20:10;16.42;;;10.20;;
42964;SDS011;28604;51.204;22.552;2024-03-07T09:22:40;14.82;;;9.95;;
42964;SDS011;28604;51.204;22.552;2024-03-07T09:25:10;13.70;;;9.73;;
42964;SDS011;28604;51.204;22.552;2024-03-07T09:27:38;17.00;;;10.50;;
42964;SDS011;28604;51.204;22.552;2024-03-07T09:30:08;14.73;;;10.10;;
42964;SDS011;28604;51.204;22.552;2024-03-07T09:32:40;20.77;;;10.02;;
42964;SDS011;28604;51.204;22.552;2024-03-07T09:35:07;20.15;;;10.57;;
42964;SDS011;28604;51.204;22.552;2024-03-07T09:37:40;16.48;;;11.20;;
42964;SDS011;28604;51.204;22.552;2024-03-07T09:40:08;13.90;;;9.82;;
42964;SDS011;28604;51.204;22.552;2024-03-07T09:42:46;13.05;;;8.98;;
42964;SDS011;28604;51.204;22.552;2024-03-07T09:45:17;12.25;;;9.63;;
42964;SDS011;28604;51.204;22.552;2024-03-07T09:47:45;17.23;;;9.23;;
42964;SDS011;28604;51.204;22.552;2024-03-07T09:50:17;15.27;;;9.27;;
42964;SDS011;28604;51.204;22.552;2024-03-07T09:52:45;15.38;;;10.18;;
42964;SDS011;28604;51.204;22.552;2024-03-07T09:55:15;17.67;;;9.85;;
42964;SDS011;28604;51.204;22.552;2024-03-07T09:57:46;18.52;;;10.52;;
42964;SDS011;28604;51.204;22.552;2024-03-07T10:00:16;18.95;;;9.80;;
42964;SDS011;28604;51.204;22.552;2024-03-07T10:05:28;15.43;;;9.93;;
42964;SDS011;28604;51.204;22.552;2024-03-07T10:07:55;14.93;;;9.13;;
42964;SDS011;28604;51.204;22.552;2024-03-07T10:10:23;13.65;;;9.63;;
42964;SDS011;28604;51.204;22.552;2024-03-07T10:12:49;15.75;;;9.15;;
42964;SDS011;28604;51.204;22.552;2024-03-07T13:23:54;11.02;;;6.97;;
42964;SDS011;28604;51.204;22.552;2024-03-07T13:26:23;14.50;;;8.13;;
42964;SDS011;28604;51.204;22.552;2024-03-07T13:28:51;11.50;;;8.40;;
42964;SDS011;28604;51.204;22.552;2024-03-07T13:31:19;16.27;;;7.65;;
42964;SDS011;28604;51.204;22.552;2024-03-07T13:33:45;10.70;;;7.90;;
42964;SDS011;28604;51.204;22.552;2024-03-07T13:36:12;13.23;;;8.68;;
42964;SDS011;28604;51.204;22.552;2024-03-07T13:38:57;10.73;;;7.35;;
42964;SDS011;28604;51.204;22.552;2024-03-07T13:41:23;13.73;;;7.57;;
42964;SDS011;28604;51.204;22.552;2024-03-07T13:43:51;11.45;;;7.18;;
42964;SDS011;28604;51.204;22.552;2024-03-07T13:46:17;15.32;;;7.60;;
42964;SDS011;28604;51.204;22.552;2024-03-07T13:48:43;15.63;;;8.27;;
42964;SDS011;28604;51.204;22.552;2024-03-07T13:51:10;12.48;;;8.00;;
42964;SDS011;28604;51.204;22.552;2024-03-07T13:53:40;18.60;;;7.70;;
42964;SDS011;28604;51.204;22.552;2024-03-07T13:56:23;15.07;;;7.95;;
42964;SDS011;28604;51.204;22.552;2024-03-07T14:02:14;15.82;;;7.43;;
42964;SDS011;28604;51.204;22.552;2024-03-07T14:04:51;15.80;;;7.53;;
42964;SDS011;28604;51.204;22.552;2024-03-07T14:10:33;12.23;;;8.07;;
42964;SDS011;28604;51.204;22.552;2024-03-07T14:22:16;16.23;;;8.65;;
42964;SDS011;28604;51.204;22.552;2024-03-07T14:25:17;15.65;;;8.43;;
42964;SDS011;28604;51.204;22.552;2024-03-07T14:28:17;12.80;;;8.75;;
42964;SDS011;28604;51.204;22.552;2024-03-07T14:31:08;12.90;;;7.97;;
42964;SDS011;28604;51.204;22.552;2024-03-07T14:34:00;14.60;;;8.88;;
42964;SDS011;28604;51.204;22.552;2024-03-07T14:36:33;14.45;;;8.98;;
42964;SDS011;28604;51.204;22.552;2024-03-07T14:39:06;14.05;;;9.00;;
42964;SDS011;28604;51.204;22.552;2024-03-07T14:44:17;16.80;;;8.50;;
42964;SDS011;28604;51.204;22.552;2024-03-07T14:46:45;12.68;;;8.35;;
42964;SDS011;28604;51.204;22.552;2024-03-07T14:49:14;13.18;;;8.27;;
42964;SDS011;28604;51.204;22.552;2024-03-07T14:51:42;12.88;;;7.97;;
42964;SDS011;28604;51.204;22.552;2024-03-07T14:54:08;13.57;;;7.82;;
42964;SDS011;28604;51.204;22.552;2024-03-07T14:56:35;14.70;;;8.63;;
42964;SDS011;28604;51.204;22.552;2024-03-07T14:59:01;12.90;;;8.27;;
42964;SDS011;28604;51.204;22.552;2024-03-07T15:01:31;15.20;;;8.00;;
42964;SDS011;28604;51.204;22.552;2024-03-07T15:04:02;13.95;;;8.45;;
42964;SDS011;28604;51.204;22.552;2024-03-07T15:06:35;17.35;;;8.85;;
42964;SDS011;28604;51.204;22.552;2024-03-07T15:09:01;12.20;;;8.30;;
42964;SDS011;28604;51.204;22.552;2024-03-07T15:11:33;14.52;;;8.95;;
42964;SDS011;28604;51.204;22.552;2024-03-07T15:14:00;14.27;;;8.60;;
42964;SDS011;28604;51.204;22.552;2024-03-07T15:16:36;12.90;;;8.23;;
42964;SDS011;28604;51.204;22.552;2024-03-07T15:19:03;17.30;;;9.32;;
42964;SDS011;28604;51.204;22.552;2024-03-07T21:12:44;89.20;;;40.53;;
42964;SDS011;28604;51.204;22.552;2024-03-07T21:15:11;93.82;;;43.65;;
42964;SDS011;28604;51.204;22.552;2024-03-07T21:17:40;90.00;;;40.80;;
42964;SDS011;28604;51.204;22.552;2024-03-07T21:20:07;92.13;;;42.17;;
42964;SDS011;28604;51.204;22.552;2024-03-07T21:22:39;99.90;;;44.40;;
42964;SDS011;28604;51.204;22.552;2024-03-07T21:25:06;92.95;;;42.55;;
42964;SDS011;28604;51.204;22.552;2024-03-07T21:27:33;98.65;;;47.67;;
42964;SDS011;28604;51.204;22.552;2024-03-07T21:30:00;93.38;;;46.08;;
42964;SDS011;28604;51.204;22.552;2024-03-07T21:32:26;91.82;;;44.72;;
42964;SDS011;28604;51.204;22.552;2024-03-07T21:34:52;94.03;;;44.50;;
42964;SDS011;28604;51.204;22.552;2024-03-07T21:37:18;93.78;;;43.72;;
42964;SDS011;28604;51.204;22.552;2024-03-07T21:39:45;95.30;;;45.30;;
42964;SDS011;28604;51.204;22.552;2024-03-07T21:42:10;97.05;;;46.15;;
42964;SDS011;28604;51.204;22.552;2024-03-07T21:44:37;95.65;;;45.63;;
42964;SDS011;28604;51.204;22.552;2024-03-07T21:47:03;105.53;;;46.63;;
42964;SDS011;28604;51.204;22.552;2024-03-07T21:49:29;104.25;;;46.97;;
42964;SDS011;28604;51.204;22.552;2024-03-07T21:52:05;97.82;;;45.90;;
42964;SDS011;28604;51.204;22.552;2024-03-07T21:54:35;114.22;;;51.45;;
42964;SDS011;28604;51.204;22.552;2024-03-07T21:57:01;117.60;;;52.97;;
42964;SDS011;28604;51.204;22.552;2024-03-07T21:59:27;116.45;;;55.15;;
42964;SDS011;28604;51.204;22.552;2024-03-07T22:01:54;121.05;;;54.35;;
42964;SDS011;28604;51.204;22.552;2024-03-07T22:04:20;130.25;;;57.35;;
42964;SDS011;28604;51.204;22.552;2024-03-07T22:06:46;118.45;;;54.95;;
42964;SDS011;28604;51.204;22.552;2024-03-07T22:09:12;125.28;;;56.63;;
42964;SDS011;28604;51.204;22.552;2024-03-07T22:11:38;111.28;;;53.25;;
42964;SDS011;28604;51.204;22.552;2024-03-07T22:14:04;119.95;;;54.05;;
42964;SDS011;28604;51.204;22.552;2024-03-07T22:16:30;110.22;;;49.88;;
42964;SDS011;28604;51.204;22.552;2024-03-07T22:18:57;111.28;;;50.38;;
42964;SDS011;28604;51.204;22.552;2024-03-07T22:21:26;108.15;;;48.33;;
42964;SDS011;28604;51.204;22.552;2024-03-07T22:23:52;105.28;;;49.67;;
42964;SDS011;28604;51.204;22.552;2024-03-07T22:26:17;106.82;;;48.55;;
42964;SDS011;28604;51.204;22.552;2024-03-07T22:28:43;107.68;;;48.28;;
42964;SDS011;28604;51.204;22.552;2024-03-07T22:31:09;99.00;;;48.13;;
42964;SDS011;28604;51.204;22.552;2024-03-07T22:33:35;103.03;;;48.38;;
42964;SDS011;28604;51.204;22.552;2024-03-07T22:36:07;107.47;;;47.55;;
42964;SDS011;28604;51.204;22.552;2024-03-07T22:38:34;107.97;;;46.10;;
42964;SDS011;28604;51.204;22.552;2024-03-07T22:41:01;106.30;;;48.97;;
42964;SDS011;28604;51.204;22.552;2024-03-07T22:43:30;110.78;;;49.70;;
42964;SDS011;28604;51.204;22.552;2024-03-07T22:45:56;115.40;;;50.95;;
42964;SDS011;28604;51.204;22.552;2024-03-07T22:48:22;119.85;;;53.35;;
42964;SDS011;28604;51.204;22.552;2024-03-07T22:50:48;127.55;;;52.92;;
42964;SDS011;28604;51.204;22.552;2024-03-07T22:53:16;115.95;;;49.72;;
42964;SDS011;28604;51.204;22.552;2024-03-07T22:55:42;105.57;;;47.05;;
42964;SDS011;28604;51.204;22.552;2024-03-07T22:58:08;106.22;;;51.35;;
42964;SDS011;28604;51.204;22.552;2024-03-07T23:00:35;103.60;;;48.13;;
42964;SDS011;28604;51.204;22.552;2024-03-07T23:03:12;103.38;;;49.75;;
42964;SDS011;28604;51.204;22.552;2024-03-07T23:05:41;107.20;;;49.37;;
42964;SDS011;28604;51.204;22.552;2024-03-07T23:08:07;118.07;;;51.28;;
42964;SDS011;28604;51.204;22.552;2024-03-07T23:16:18;110.50;;;47.47;;
42964;SDS011;28604;51.204;22.552;2024-03-07T23:18:44;113.95;;;49.95;;
42964;SDS011;28604;51.204;22.552;2024-03-07T23:21:10;102.00;;;49.40;;
42964;SDS011;28604;51.204;22.552;2024-03-07T23:23:36;106.53;;;46.70;;
42964;SDS011;28604;51.204;22.552;2024-03-07T23:26:02;98.45;;;43.50;;
42964;SDS011;28604;51.204;22.552;2024-03-07T23:28:28;90.32;;;42.60;;
42964;SDS011;28604;51.204;22.552;2024-03-07T23:30:54;94.85;;;44.47;;
42964;SDS011;28604;51.204;22.552;2024-03-07T23:33:20;105.57;;;44.53;;
42964;SDS011;28604;51.204;22.552;2024-03-07T23:35:46;93.30;;;43.05;;
42964;SDS011;28604;51.204;22.552;2024-03-07T23:38:12;99.03;;;45.30;;
42964;SDS011;28604;51.204;22.552;2024-03-07T23:40:38;124.10;;;50.28;;
42964;SDS011;28604;51.204;22.552;2024-03-07T23:43:07;108.10;;;48.63;;
42964;SDS011;28604;51.204;22.552;2024-03-07T23:45:37;107.03;;;48.33;;
42964;SDS011;28604;51.204;22.552;2024-03-07T23:48:03;113.05;;;50.75;;
42964;SDS011;28604;51.204;22.552;2024-03-07T23:50:29;119.95;;;51.58;;
42964;SDS011;28604;51.204;22.552;2024-03-07T23:52:55;112.53;;;50.33;;
42964;SDS011;28604;51.204;22.552;2024-03-07T23:55:21;117.50;;;49.53;;
42964;SDS011;28604;51.204;22.552;2024-03-07T23:57:48;116.55;;;50.67;;
